Time;durP1;ratioP1;P1;durP2;ratioP2;P2;SDS_P1;SDS_P2;PMS_P1;PMS_P2;Temp;Humidity;BMP_temperature;BMP_pressure;BME280_temperature;BME280_humidity;BME280_pressure;Samples;Min_cycle;Max_cycle;Signal;HPM_P1;HPM_P2
2023/10/27 00:25:47;;;;;;;;;;;;;;;;;;;;;
2023/10/27 00:55:32;;;;;;;;;;;;;;;;;;;;;
2023/10/27 00:58:42;;;;;;;48.80;21.33;;;10.20;99.90;;;;;;6193077;23;20427;-94
2023/10/27 01:12:10;;;;;;;42.53;20.10;;;10.20;99.90;;;;;;5982402;23;20446;-91
2023/10/27 02:41:34;;;;;;;36.77;18.73;;;10.10;99.90;;;;;;6254690;22;20440;-91
2023/10/27 02:44:13;;;;;;;30.13;18.47;;;;;;;;;;6254911;23;20421;-92
2023/10/27 02:46:56;;;;;;;40.27;18.10;;;10.00;99.90;;;;;;6264637;23;20504;-91
2023/10/27 02:49:45;;;;;;;35.20;18.70;;;;;;;;;;6266092;23;20475;-92
2023/10/27 02:52:13;;;;;;;32.53;17.90;;;;;;;;;;6260916;23;20424;-92
2023/10/27 02:54:45;;;;;;;38.30;19.43;;;;;;;;;;6253585;23;20394;-92
2023/10/27 02:57:32;;;;;;;39.73;18.33;;;10.00;99.90;;;;;;6265066;22;20378;-93
2023/10/27 03:00:10;;;;;;;33.23;16.53;;;;;;;;;;6274463;22;20398;-93
2023/10/27 03:02:48;;;;;;;32.93;18.43;;;;;;;;;;6270736;22;20802;-93
2023/10/27 03:05:33;;;;;;;44.10;20.97;;;;;;;;;;6253082;23;20356;-93
2023/10/27 03:08:28;;;;;;;37.47;20.23;;;10.10;99.90;;;;;;6254087;23;20429;-93
2023/10/27 03:13:50;;;;;;;36.90;19.93;;;;;;;;;;6250277;23;20876;-93
2023/10/27 03:16:27;;;;;;;40.83;20.10;;;;;;;;;;6253535;23;20716;-93
2023/10/27 03:19:03;;;;;;;36.43;19.20;;;;;;;;;;6254473;23;20388;-93
2023/10/27 03:21:46;;;;;;;38.20;19.63;;;;;;;;;;6254424;23;20769;-93
2023/10/27 03:27:03;;;;;;;32.60;19.80;;;;;;;;;;6251623;23;20391;-93
2023/10/27 03:29:40;;;;;;;38.10;18.23;;;;;;;;;;6273342;23;20381;-94
2023/10/27 03:32:17;;;;;;;37.00;18.90;;;;;;;;;;6273664;22;20403;-93
2023/10/27 03:40:41;;;;;;;36.97;18.87;;;;;;;;;;6255477;23;20409;-94
2023/10/27 03:43:22;;;;;;;36.90;19.63;;;;;;;;;;6267811;23;20401;-93
2023/10/27 03:46:04;;;;;;;36.37;19.33;;;;;;;;;;6259974;23;20454;-93
2023/10/27 03:48:43;;;;;;;36.27;17.63;;;;;;;;;;6260962;22;20420;-93
2023/10/27 03:51:59;;;;;;;37.20;19.60;;;10.10;99.90;;;;;;6269759;22;20433;-93
2023/10/27 03:59:46;;;;;;;40.37;18.30;;;;;;;;;;6246767;22;20459;-93
2023/10/27 04:02:40;;;;;;;;;;;;;;;;;;;;;
2023/10/27 04:09:43;;;;;;;;;;;;;;;;;;;;;
2023/10/27 04:52:50;;;;;;;36.63;18.07;;;10.10;99.90;;;;;;6182062;22;20451;-93
2023/10/27 04:55:29;;;;;;;32.13;17.30;;;;;;;;;;6263022;23;20464;-94
2023/10/27 05:01:38;;;;;;;30.90;17.27;;;10.00;99.90;;;;;;6266594;23;20419;-94
2023/10/27 05:05:02;;;;;;;31.03;16.07;;;10.00;99.90;;;;;;6126964;23;20449;-93
2023/10/27 11:57:21;;;;;;;33.33;18.97;;;;;;;;;;6251947;22;20465;-91
2023/10/27 11:59:50;;;;;;;41.37;24.50;;;10.80;68.70;;;;;;6267866;22;20393;-93
2023/10/27 12:02:17;;;;;;;26.73;16.10;;;;;;;;;;6266875;23;20395;-92
2023/10/27 12:04:56;;;;;;;21.00;14.23;;;;;;;;;;6269276;22;20436;-91
2023/10/27 12:07:24;;;;;;;15.10;10.03;;;;;;;;;;6273547;22;20373;-94
2023/10/27 12:09:55;;;;;;;16.90;12.07;;;;;;;;;;6273545;22;20478;-93
2023/10/27 12:12:29;;;;;;;16.73;11.50;;;;;;;;;;6272803;22;20409;-94
2023/10/27 12:15:00;;;;;;;22.67;13.27;;;;;;;;;;6246748;22;20484;-94
2023/10/27 12:17:33;;;;;;;18.70;12.37;;;;;;;;;;6271455;23;20413;-94
2023/10/27 12:20:06;;;;;;;17.57;12.03;;;;;;;;;;6273310;22;20383;-92
2023/10/27 12:22:48;;;;;;;16.30;11.30;;;;;;;;;;6274112;22;20389;-91
2023/10/27 12:28:15;;;;;;;13.53;10.23;;;;;;;;;;6271306;22;20449;-92
2023/10/27 12:30:46;;;;;;;16.93;10.97;;;;;;;;;;6274474;22;20415;-92
2023/10/27 12:33:30;;;;;;;14.83;10.90;;;;;;;;;;6276034;22;20340;-91
2023/10/27 12:35:58;;;;;;;13.90;10.57;;;;;;;;;;6275452;22;20401;-91
2023/10/27 12:38:36;;;;;;;15.87;11.27;;;;;;;;;;6273792;22;20401;-93
2023/10/27 12:41:16;;;;;;;17.13;11.40;;;;;;;;;;6275319;22;20370;-91
2023/10/27 12:44:10;;;;;;;11.20;9.80;;;;;;;;;;6275870;22;20381;-91
2023/10/27 12:46:49;;;;;;;12.97;10.07;;;;;;;;;;6276034;22;20393;-91
2023/10/27 12:49:50;;;;;;;13.70;9.77;;;10.70;99.90;;;;;;6274587;22;20437;-94
2023/10/27 12:52:25;;;;;;;16.43;12.20;;;;;;;;;;6272640;22;20412;-95
2023/10/27 12:55:07;;;;;;;16.90;11.03;;;;;;;;;;6270859;23;20424;-94
2023/10/27 12:57:42;;;;;;;14.53;10.77;;;;;;;;;;6274696;22;20423;-90
2023/10/27 13:00:27;;;;;;;14.67;10.57;;;;;;;;;;6274945;22;20400;-94
2023/10/27 13:08:15;;;;;;;13.17;10.43;;;;;;;;;;6261007;22;20447;-91
2023/10/27 13:10:50;;;;;;;19.33;12.83;;;;;;;;;;6273712;22;20402;-93
2023/10/27 13:13:32;;;;;;;13.80;10.40;;;;;;;;;;6271379;23;20408;-94
2023/10/27 13:16:06;;;;;;;15.90;11.00;;;;;;;;;;6273821;23;20409;-94
2023/10/27 13:18:38;;;;;;;16.53;11.47;;;;;;;;;;6274187;22;20401;-94
2023/10/27 13:21:34;;;;;;;21.03;12.77;;;10.50;99.90;;;;;;6274445;22;20409;-92
2023/10/27 13:24:17;;;;;;;15.20;11.17;;;;;;;;;;6273682;22;20396;-90
2023/10/27 13:26:50;;;;;;;15.30;10.40;;;;;;;;;;6274409;22;20401;-92
2023/10/27 13:29:32;;;;;;;14.47;11.47;;;;;;;;;;6272444;22;20484;-93
2023/10/27 13:32:08;;;;;;;15.50;11.23;;;;;;;;;;6275489;22;20393;-91
2023/10/27 13:34:45;;;;;;;13.97;10.27;;;;;;;;;;6275571;22;20429;-91
2023/10/27 13:45:12;;;;;;;19.83;12.17;;;;;;;;;;6246630;22;20499;-92
2023/10/27 13:48:02;;;;;;;16.13;11.57;;;;;;;;;;6244576;23;20390;-92
2023/10/27 13:50:40;;;;;;;13.60;11.00;;;;;;;;;;6242365;23;20385;-93
2023/10/27 13:53:11;;;;;;;14.80;10.97;;;;;;;;;;6242844;23;20409;-94
2023/10/27 13:55:57;;;;;;;13.53;12.13;;;;;;;;;;6241947;23;20406;-95
2023/10/27 13:58:29;;;;;;;15.00;11.47;;;;;;;;;;6244108;23;20386;-92
2023/10/27 14:01:01;;;;;;;18.27;12.13;;;;;;;;;;6241374;23;20410;-94
2023/10/27 14:03:40;;;;;;;15.30;10.70;;;10.20;99.90;;;;;;6239261;23;20437;-93
2023/10/27 14:06:24;;;;;;;16.40;11.43;;;;;;;;;;6242979;23;20395;-92
2023/10/27 14:08:56;;;;;;;13.43;10.97;;;;;;;;;;6244161;23;20421;-91
2023/10/27 14:11:38;;;;;;;17.37;12.93;;;;;;;;;;6244433;23;20385;-91
2023/10/27 14:14:20;;;;;;;19.67;12.07;;;;;;;;;;6244391;23;20403;-91
2023/10/27 14:19:40;;;;;;;17.40;12.47;;;;;;;;;;6244413;23;20450;-90
2023/10/27 14:22:13;;;;;;;18.43;12.33;;;;;;;;;;6244309;23;20385;-90
2023/10/27 14:24:50;;;;;;;19.10;13.03;;;;;;;;;;6243731;23;20400;-91
2023/10/27 14:27:32;;;;;;;18.63;12.47;;;;;;;;;;6244561;23;20386;-91
2023/10/27 14:30:01;;;;;;;13.43;10.53;;;;;;;;;;6244405;23;20425;-91
2023/10/27 14:32:37;;;;;;;18.27;12.27;;;;;;;;;;6244602;23;20394;-91
2023/10/27 14:35:17;;;;;;;19.27;11.77;;;10.20;99.90;;;;;;6244015;23;20425;-90
2023/10/27 14:37:47;;;;;;;22.77;14.80;;;;;;;;;;6244476;23;20450;-93
2023/10/27 14:40:19;;;;;;;23.50;14.87;;;;;;;;;;6241224;23;20382;-93
2023/10/27 14:42:47;;;;;;;18.43;13.47;;;;;;;;;;6237831;23;20480;-92
2023/10/27 14:45:23;;;;;;;22.00;14.83;;;;;;;;;;6238715;23;20509;-94
2023/10/27 14:47:54;;;;;;;20.23;14.73;;;;;;;;;;6243747;23;20371;-93
2023/10/27 14:50:25;;;;;;;24.23;16.37;;;;;;;;;;6243963;23;20413;-91
2023/10/27 14:52:54;;;;;;;21.83;14.53;;;;;;;;;;6243584;23;20410;-92
2023/10/27 14:55:25;;;;;;;19.23;13.20;;;;;;;;;;6244120;23;20421;-92
2023/10/27 14:57:56;;;;;;;23.67;15.53;;;;;;;;;;6244243;23;20393;-92
2023/10/27 15:00:24;;;;;;;20.13;14.83;;;;;;;;;;6242063;23;20409;-94
2023/10/27 15:02:55;;;;;;;20.73;15.40;;;;;;;;;;6242576;23;20398;-92
2023/10/27 15:05:26;;;;;;;26.50;17.13;;;;;;;;;;6243365;23;20445;-92
2023/10/27 15:07:58;;;;;;;18.70;13.20;;;10.30;99.90;;;;;;6243841;23;20398;-92
2023/10/27 15:10:27;;;;;;;21.13;13.67;;;;;;;;;;6235305;22;20583;-92
2023/10/27 15:13:07;;;;;;;21.50;14.57;;;;;;;;;;6274493;22;20361;-93
2023/10/27 15:15:42;;;;;;;20.67;14.57;;;;;;;;;;6248346;22;20387;-92
2023/10/27 15:18:16;;;;;;;21.13;13.30;;;;;;;;;;6274440;22;20368;-92
2023/10/27 15:21:11;;;;;;;19.67;12.27;;;10.20;99.90;;;;;;6274181;22;20397;-92
2023/10/27 15:23:51;;;;;;;21.33;14.53;;;;;;;;;;6274229;22;20383;-92
2023/10/27 15:26:27;;;;;;;20.10;13.50;;;;;;;;;;6273265;22;20393;-94
2023/10/27 15:28:54;;;;;;;21.33;13.63;;;;;;;;;;6270962;22;20409;-94
2023/10/27 15:31:24;;;;;;;21.40;13.57;;;;;;;;;;6271156;22;20399;-94
2023/10/27 15:34:00;;;;;;;23.73;15.70;;;;;;;;;;6271455;22;20444;-94
2023/10/27 15:36:30;;;;;;;21.90;14.70;;;;;;;;;;6273158;22;20427;-92
2023/10/27 15:38:59;;;;;;;21.47;15.17;;;;;;;;;;6268202;22;20419;-95
2023/10/27 15:41:30;;;;;;;23.47;15.73;;;;;;;;;;6267319;22;20417;-95
2023/10/27 15:44:02;;;;;;;23.23;15.83;;;;;;;;;;6263851;23;20420;-94
2023/10/27 15:46:32;;;;;;;24.87;17.67;;;;;;;;;;6271227;22;20397;-93
2023/10/27 18:43:02;;;;;;;22.97;13.83;;;;;;;;;;6219860;22;20500;-94
2023/10/27 18:48:08;;;;;;;21.70;14.97;;;;;;;;;;6240671;22;20479;-93
2023/10/27 18:50:46;;;;;;;22.73;15.43;;;9.70;99.90;;;;;;6274819;22;20379;-93
2023/10/27 18:53:13;;;;;;;25.80;15.97;;;;;;;;;;6259494;22;20480;-93
2023/10/27 18:55:41;;;;;;;24.90;17.00;;;;;;;;;;6254856;23;20440;-93
2023/10/27 18:58:10;;;;;;;21.67;15.00;;;;;;;;;;6255665;23;20420;-92
2023/10/27 19:00:41;;;;;;;22.23;15.00;;;;;;;;;;6255963;23;20424;-93
2023/10/27 19:03:11;;;;;;;26.97;16.60;;;;;;;;;;6255869;23;20414;-93
2023/10/27 19:05:50;;;;;;;;;;;;;;;;;;;;;
2023/10/27 19:08:18;;;;;;;28.93;20.00;;;;;;;;;;6265926;23;20356;-93
2023/10/27 19:10:48;;;;;;;26.50;18.10;;;;;;;;;;6255479;23;20407;-93
2023/10/27 19:13:19;;;;;;;26.23;15.80;;;;;;;;;;6268958;22;20370;-93
2023/10/27 19:15:52;;;;;;;25.20;16.07;;;;;;;;;;6274074;22;20572;-93
2023/10/27 19:18:29;;;;;;;19.03;14.00;;;;;;;;;;6273866;22;20473;-94
2023/10/27 19:21:14;;;;;;;20.17;13.43;;;;;;;;;;6273314;22;20413;-93
2023/10/27 19:23:50;;;;;;;21.53;14.40;;;9.60;99.90;;;;;;6266092;22;20412;-94
2023/10/27 19:26:32;;;;;;;26.27;14.83;;;9.60;99.90;;;;;;6274339;22;20374;-94
2023/10/27 19:32:11;;;;;;;19.53;12.73;;;;;;;;;;6260393;23;20402;-93
2023/10/27 19:34:42;;;;;;;20.07;14.30;;;;;;;;;;6268324;22;20425;-94
2023/10/27 19:37:09;;;;;;;21.30;14.33;;;;;;;;;;6259063;23;20457;-91
2023/10/27 19:49:18;;;;;;;;;;;;;;;;;;;;;
2023/10/27 19:51:49;;;;;;;27.50;17.40;;;;;;;;;;6258352;23;20396;-92
2023/10/27 19:54:20;;;;;;;19.63;14.33;;;;;;;;;;6263392;23;20452;-92
2023/10/27 19:56:51;;;;;;;24.40;14.70;;;;;;;;;;6265958;23;20373;-92
2023/10/27 19:59:22;;;;;;;24.03;14.80;;;;;;;;;;6268971;23;20356;-91
2023/10/27 20:01:51;;;;;;;20.73;13.63;;;;;;;;;;6269172;23;20443;-91
2023/10/27 20:04:20;;;;;;;17.37;14.00;;;;;;;;;;6274363;22;20437;-94
2023/10/27 20:06:48;;;;;;;21.63;14.80;;;;;;;;;;6274395;22;20373;-93
2023/10/27 20:09:18;;;;;;;20.80;14.10;;;;;;;;;;6268959;23;20536;-91
2023/10/27 20:11:50;;;;;;;25.93;15.70;;;;;;;;;;6268215;23;20402;-91
2023/10/27 20:14:18;;;;;;;21.80;14.43;;;;;;;;;;6269047;23;20443;-90
2023/10/27 20:16:45;;;;;;;24.93;15.20;;;;;;;;;;6268695;23;20445;-91
2023/10/27 20:19:16;;;;;;;24.03;15.63;;;9.40;99.90;;;;;;6272178;22;20395;-91
2023/10/27 20:21:44;;;;;;;19.93;14.43;;;;;;;;;;6270125;23;20430;-91
2023/10/27 20:24:14;;;;;;;20.60;13.67;;;;;;;;;;6266202;23;20426;-91
2023/10/27 20:26:43;;;;;;;22.67;16.60;;;;;;;;;;6269315;22;20404;-91
2023/10/27 21:42:44;;;;;;;22.00;14.80;;;;;;;;;;6259237;22;20404;-91
2023/10/27 21:45:19;;;;;;;21.37;14.20;;;;;;;;;;6275555;22;20405;-92
2023/10/27 21:48:04;;;;;;;24.53;15.17;;;;;;;;;;6275064;22;20443;-91
2023/10/27 21:59:38;;;;;;;;;;;;;;;;;;;;;
2023/10/27 22:02:20;;;;;;;23.90;14.80;;;;;;;;;;6270982;22;20476;-93
2023/10/27 22:05:05;;;;;;;22.40;14.80;;;;;;;;;;6274489;22;20412;-92
2023/10/27 22:08:14;;;;;;;24.13;15.70;;;9.40;99.90;;;;;;6274568;22;20405;-91
2023/10/27 22:22:41;;;;;;;20.23;12.77;;;;;;;;;;6263258;23;20364;-93
2023/10/27 23:25:45;;;;;;;15.10;10.50;;;9.40;99.90;;;;;;6205980;22;20416;-90
2023/10/27 23:59:50;;;;;;;15.10;9.90;;;9.40;99.90;;;;;;6214757;23;20412;-89
